createdAt,value
2018-02-21T00:00:48.051Z,41.15
2018-02-21T00:03:16.970Z,42.67
2018-02-21T00:05:45.911Z,45.12
2018-02-21T00:08:14.845Z,52.08
2018-02-21T00:10:43.702Z,46.05
2018-02-21T00:13:12.790Z,44.22
2018-02-21T00:15:41.667Z,47.38
2018-02-21T00:18:10.525Z,45.25
2018-02-21T00:20:39.377Z,40.63
2018-02-21T00:23:08.263Z,57.42
2018-02-21T00:25:37.138Z,47.50
2018-02-21T00:28:06.040Z,45.05
2018-02-21T00:30:34.928Z,50.35
2018-02-21T00:33:03.880Z,40.17
2018-02-21T00:35:32.741Z,47.45
2018-02-21T00:38:01.623Z,59.30
2018-02-21T00:40:30.482Z,52.22
2018-02-21T00:42:59.341Z,47.78
2018-02-21T00:45:28.230Z,48.22
2018-02-21T00:47:57.110Z,50.50
2018-02-21T00:50:26.069Z,45.42
2018-02-21T00:52:54.965Z,45.67
2018-02-21T00:55:23.835Z,49.95
2018-02-21T00:57:52.822Z,47.30
2018-02-21T01:00:21.713Z,42.47
2018-02-21T01:02:50.561Z,43.83
2018-02-21T01:05:19.426Z,49.00
2018-02-21T01:07:48.313Z,46.37
2018-02-21T01:10:17.169Z,48.85
2018-02-21T01:12:46.958Z,48.53
2018-02-21T01:15:22.519Z,49.45
2018-02-21T01:17:51.372Z,57.42
2018-02-21T01:20:20.230Z,57.53
2018-02-21T01:22:49.117Z,46.67
2018-02-21T01:25:22.207Z,52.47
2018-02-21T01:27:51.098Z,44.63
2018-02-21T01:30:19.965Z,49.30
2018-02-21T01:32:49.039Z,50.67
2018-02-21T01:35:17.911Z,52.05
2018-02-21T01:37:46.765Z,55.33
2018-02-21T01:40:15.628Z,47.40
2018-02-21T01:42:44.497Z,44.75
2018-02-21T01:45:13.363Z,54.22
2018-02-21T01:47:42.223Z,50.83
2018-02-21T01:50:11.093Z,49.55
2018-02-21T01:52:39.950Z,50.42
2018-02-21T01:55:08.817Z,42.60
2018-02-21T01:57:38.022Z,41.33
2018-02-21T02:00:06.888Z,40.92
2018-02-21T02:02:35.747Z,50.70
2018-02-21T02:05:04.618Z,55.15
2018-02-21T02:07:33.478Z,49.20
2018-02-21T02:10:02.333Z,54.22
2018-02-21T02:12:31.199Z,43.60
2018-02-21T02:15:00.077Z,53.90
2018-02-21T02:17:29.033Z,47.20
2018-02-21T02:19:57.924Z,62.50
2018-02-21T02:22:26.786Z,49.10
2018-02-21T02:24:55.650Z,52.58
2018-02-21T02:27:24.521Z,42.70
2018-02-21T02:29:53.376Z,44.75
2018-02-21T02:32:22.232Z,52.75
2018-02-21T02:34:51.125Z,46.88
2018-02-21T02:37:19.976Z,45.85
2018-02-21T02:39:49.724Z,55.63
2018-02-21T02:42:18.809Z,62.95
2018-02-21T02:44:47.667Z,42.58
2018-02-21T02:47:16.540Z,51.58
2018-02-21T02:49:45.433Z,48.22
2018-02-21T02:52:14.290Z,46.15
2018-02-21T02:54:43.148Z,43.78
2018-02-21T02:57:12.026Z,54.28
2018-02-21T02:59:40.903Z,53.67
2018-02-21T03:02:09.802Z,45.05
2018-02-21T03:04:38.696Z,59.58
2018-02-21T03:07:07.562Z,44.38
2018-02-21T03:09:36.409Z,49.72
2018-02-21T03:12:05.283Z,57.05
2018-02-21T03:14:34.139Z,49.45
2018-02-21T03:17:02.994Z,55.00
2018-02-21T03:19:32.209Z,58.25
2018-02-21T03:22:01.058Z,59.35
2018-02-21T03:24:29.969Z,50.03
2018-02-21T03:26:58.851Z,53.38
2018-02-21T03:29:27.713Z,59.63
2018-02-21T03:31:56.588Z,56.78
2018-02-21T03:34:25.479Z,51.05
2018-02-21T03:36:54.373Z,63.03
2018-02-21T03:39:23.226Z,57.50
2018-02-21T03:41:52.110Z,63.08
2018-02-21T03:44:20.966Z,60.10
2018-02-21T03:46:49.816Z,64.53
2018-02-21T03:49:18.685Z,62.47
2018-02-21T03:51:47.545Z,58.63
2018-02-21T03:54:16.393Z,52.97
2018-02-21T03:56:45.286Z,54.13
2018-02-21T03:59:14.149Z,53.70
2018-02-21T04:01:43.203Z,55.85
2018-02-21T04:04:12.079Z,53.08
2018-02-21T04:06:40.947Z,56.75
2018-02-21T04:09:09.814Z,53.50
2018-02-21T04:11:38.706Z,54.58
2018-02-21T04:14:07.561Z,55.88
2018-02-21T04:16:36.413Z,57.80
2018-02-21T04:19:05.312Z,53.08
2018-02-21T04:21:34.451Z,59.40
2018-02-21T04:24:03.313Z,57.72
2018-02-21T04:26:32.201Z,61.95
2018-02-21T04:29:01.134Z,48.95
2018-02-21T04:31:29.998Z,53.40
2018-02-21T04:33:58.909Z,67.87
2018-02-21T04:36:27.756Z,62.50
2018-02-21T04:38:56.621Z,54.47
2018-02-21T04:41:25.508Z,50.92
2018-02-21T04:43:54.380Z,57.10
2018-02-21T04:46:23.246Z,50.38
2018-02-21T04:48:52.161Z,67.93
2018-02-21T04:51:21.181Z,51.30
2018-02-21T04:53:50.039Z,66.40
2018-02-21T04:56:31.638Z,53.15
2018-02-21T04:59:15.270Z,60.90
2018-02-21T05:01:44.293Z,58.75
2018-02-21T05:04:13.150Z,61.33
2018-02-21T05:06:42.024Z,56.42
2018-02-21T05:09:10.913Z,64.20
2018-02-21T05:11:39.770Z,66.68
2018-02-21T05:14:08.622Z,56.28
2018-02-21T05:16:37.509Z,54.17
2018-02-21T05:19:06.362Z,58.08
2018-02-21T05:21:35.561Z,52.92
2018-02-21T05:24:04.439Z,54.67
2018-02-21T05:26:33.301Z,58.80
2018-02-21T05:29:02.149Z,53.65
2018-02-21T05:31:31.049Z,56.67
2018-02-21T05:34:14.820Z,54.90
2018-02-21T05:36:43.919Z,54.75
2018-02-21T05:39:12.789Z,58.55
2018-02-21T05:41:41.652Z,59.63
2018-02-21T05:44:10.544Z,43.17
2018-02-21T05:46:39.408Z,66.30
2018-02-21T05:49:08.268Z,54.85
2018-02-21T05:51:37.157Z,60.60
2018-02-21T05:54:06.002Z,53.47
2018-02-21T05:56:34.866Z,57.75
2018-02-21T05:59:03.744Z,54.47
2018-02-21T06:01:32.797Z,60.40
2018-02-21T06:04:01.672Z,63.47
2018-02-21T06:06:30.573Z,54.53
2018-02-21T06:08:59.442Z,49.95
2018-02-21T06:11:28.322Z,55.63
2018-02-21T06:13:57.195Z,54.92
2018-02-21T06:16:26.388Z,54.85
2018-02-21T06:18:55.266Z,60.25
2018-02-21T06:21:24.159Z,54.90
2018-02-21T06:23:53.369Z,45.33
2018-02-21T06:26:22.273Z,65.05
2018-02-21T06:28:51.152Z,57.62
2018-02-21T06:31:20.011Z,64.45
2018-02-21T06:33:48.896Z,52.80
2018-02-21T06:36:17.777Z,44.50
2018-02-21T06:38:47.711Z,55.47
2018-02-21T06:41:16.571Z,51.60
2018-02-21T06:43:45.639Z,55.45
2018-02-21T06:46:14.890Z,49.65
2018-02-21T06:48:43.942Z,54.15
2018-02-21T06:51:12.965Z,54.10
2018-02-21T06:53:41.821Z,47.13
2018-02-21T06:56:10.679Z,54.30
2018-02-21T06:58:39.810Z,49.42
2018-02-21T07:01:08.694Z,60.53
2018-02-21T07:03:37.600Z,53.15
2018-02-21T07:06:06.476Z,60.92
2018-02-21T07:08:35.379Z,64.32
2018-02-21T07:11:04.251Z,59.92
2018-02-21T07:13:33.146Z,53.00
2018-02-21T07:16:02.164Z,57.80
2018-02-21T07:18:31.036Z,54.13
2018-02-21T07:20:59.926Z,47.15
2018-02-21T07:23:29.615Z,55.70
2018-02-21T07:25:58.595Z,48.25
2018-02-21T07:28:27.572Z,63.38
2018-02-21T07:30:56.480Z,59.55
2018-02-21T07:33:25.405Z,59.05
2018-02-21T07:35:54.457Z,61.80
2018-02-21T07:38:23.374Z,52.67
2018-02-21T07:40:52.325Z,52.70
2018-02-21T07:43:21.247Z,54.42
2018-02-21T07:45:50.110Z,55.83
2018-02-21T07:48:18.971Z,52.78
2018-02-21T07:50:47.852Z,58.90
2018-02-21T07:53:17.007Z,64.12
2018-02-21T07:55:45.929Z,46.65
2018-02-21T07:58:14.973Z,52.70
2018-02-21T08:00:43.878Z,46.97
2018-02-21T08:03:12.733Z,62.80
2018-02-21T08:05:41.817Z,47.88
2018-02-21T08:08:10.673Z,50.75
2018-02-21T08:10:39.541Z,60.83
2018-02-21T08:13:08.410Z,52.03
2018-02-21T08:15:37.377Z,54.73
2018-02-21T08:18:06.234Z,53.70
2018-02-21T08:20:35.152Z,53.83
2018-02-21T08:23:04.034Z,57.17
2018-02-21T08:25:32.886Z,52.60
2018-02-21T08:28:01.938Z,47.47
2018-02-21T08:30:30.794Z,52.43
2018-02-21T08:32:59.647Z,57.43
2018-02-21T08:35:28.547Z,54.10
2018-02-21T08:37:57.401Z,53.97
2018-02-21T08:40:26.551Z,48.00
2018-02-21T08:42:55.456Z,50.03
2018-02-21T08:45:24.312Z,43.47
2018-02-21T08:47:53.164Z,56.30
2018-02-21T08:50:22.034Z,47.50
2018-02-21T08:52:50.878Z,44.23
2018-02-21T08:55:19.972Z,48.80
2018-02-21T08:57:49.048Z,57.80
2018-02-21T09:00:18.201Z,55.33
2018-02-21T09:02:47.058Z,49.60
2018-02-21T09:05:16.352Z,44.07
2018-02-21T09:07:45.359Z,50.50
2018-02-21T09:10:14.207Z,43.23
2018-02-21T09:12:43.100Z,44.70
2018-02-21T09:15:11.946Z,44.57
2018-02-21T09:17:40.794Z,48.73
2018-02-21T09:20:09.670Z,47.80
2018-02-21T09:22:38.824Z,46.33
2018-02-21T09:25:07.665Z,49.53
2018-02-21T09:27:36.547Z,50.10
2018-02-21T09:30:05.790Z,40.63
2018-02-21T09:32:34.657Z,45.37
2018-02-21T09:35:03.543Z,46.70
2018-02-21T09:37:32.393Z,44.80
2018-02-21T09:40:01.243Z,47.57
2018-02-21T09:42:30.118Z,40.40
2018-02-21T09:44:58.970Z,47.27
2018-02-21T09:47:27.834Z,44.37
2018-02-21T09:49:56.706Z,44.77
2018-02-21T09:52:25.554Z,45.00
2018-02-21T09:54:54.418Z,41.40
2018-02-21T09:57:23.301Z,41.10
2018-02-21T09:59:52.156Z,45.60
2018-02-21T10:02:21.009Z,46.20
2018-02-21T10:04:49.912Z,42.70
2018-02-21T10:07:18.760Z,43.33
2018-02-21T10:09:47.601Z,44.63
2018-02-21T10:12:16.494Z,42.10
2018-02-21T10:14:45.334Z,41.27
2018-02-21T10:17:14.261Z,39.97
2018-02-21T10:19:43.134Z,39.70
2018-02-21T10:22:11.992Z,36.93
2018-02-21T10:24:40.850Z,39.43
2018-02-21T10:27:09.734Z,42.67
2018-02-21T10:29:38.587Z,36.50
2018-02-21T10:32:07.887Z,41.63
2018-02-21T10:34:36.749Z,35.83
2018-02-21T10:37:05.844Z,38.20
2018-02-21T10:39:34.693Z,32.10
2018-02-21T10:42:03.583Z,40.93
2018-02-21T10:44:32.430Z,32.70
2018-02-21T10:47:01.278Z,31.80
2018-02-21T10:49:30.154Z,36.07
2018-02-21T10:51:59.006Z,32.00
2018-02-21T10:54:27.851Z,33.50
2018-02-21T10:56:56.774Z,36.97
2018-02-21T10:59:26.036Z,30.27
2018-02-21T11:01:54.927Z,36.03
2018-02-21T11:04:23.803Z,36.27
2018-02-21T11:06:52.673Z,41.30
2018-02-21T11:09:21.516Z,35.30
2018-02-21T11:11:50.382Z,40.60
2018-02-21T11:14:19.244Z,36.50
2018-02-21T11:16:48.081Z,32.87
2018-02-21T11:19:16.994Z,35.87
2018-02-21T11:21:45.846Z,31.83
2018-02-21T11:24:14.889Z,29.50
2018-02-21T11:26:43.769Z,35.43
2018-02-21T11:29:12.643Z,36.30
2018-02-21T11:31:41.489Z,33.60
2018-02-21T11:34:10.569Z,37.17
2018-02-21T11:36:39.417Z,29.63
2018-02-21T11:39:08.264Z,28.67
2018-02-21T11:41:37.530Z,34.53
2018-02-21T11:44:06.375Z,28.67
2018-02-21T11:46:35.502Z,26.03
2018-02-21T11:49:04.421Z,25.73
2018-02-21T11:51:33.257Z,26.13
2018-02-21T11:54:02.198Z,30.63
2018-02-21T11:56:31.104Z,29.50
2018-02-21T11:59:00.001Z,30.50
2018-02-21T12:01:28.858Z,25.43
2018-02-21T12:03:57.828Z,28.90
2018-02-21T12:06:26.676Z,24.17
2018-02-21T12:08:55.777Z,22.70
2018-02-21T12:11:24.673Z,22.93
2018-02-21T12:13:53.707Z,26.00
2018-02-21T12:16:22.546Z,23.20
2018-02-21T12:18:51.430Z,20.30
2018-02-21T12:21:20.270Z,23.80
2018-02-21T12:23:49.123Z,27.70
2018-02-21T12:26:18.049Z,21.43
2018-02-21T12:28:47.590Z,29.23
2018-02-21T12:31:16.692Z,28.63
2018-02-21T12:33:45.573Z,26.53
2018-02-21T12:36:14.820Z,32.97
2018-02-21T12:38:43.685Z,32.73
2018-02-21T12:41:18.327Z,31.53
2018-02-21T12:43:47.165Z,27.40
2018-02-21T12:46:16.213Z,32.83
2018-02-21T12:48:45.099Z,25.93
2018-02-21T12:51:13.978Z,23.67
2018-02-21T12:53:42.857Z,32.13
2018-02-21T12:56:11.718Z,28.80
2018-02-21T12:58:40.565Z,27.23
2018-02-21T13:01:09.416Z,32.13
2018-02-21T13:03:38.301Z,23.53
2018-02-21T13:06:07.138Z,30.20
2018-02-21T13:08:36.170Z,25.80
2018-02-21T13:11:05.106Z,26.53
2018-02-21T13:13:34.407Z,28.20
2018-02-21T13:16:03.274Z,26.03
2018-02-21T13:18:32.141Z,26.00
2018-02-21T13:21:00.985Z,31.40
2018-02-21T13:23:29.825Z,28.13
2018-02-21T13:25:58.705Z,23.73
2018-02-21T13:28:27.557Z,30.27
2018-02-21T13:30:55.059Z,26.70
2018-02-21T13:33:22.587Z,31.77
2018-02-21T13:35:50.106Z,26.50
2018-02-21T13:38:17.798Z,27.63
2018-02-21T13:40:45.319Z,27.77
2018-02-21T13:43:13.595Z,21.83
2018-02-21T13:45:41.866Z,26.70
2018-02-21T13:48:10.159Z,26.83
2018-02-21T13:50:39.021Z,22.47
2018-02-21T13:53:07.870Z,26.33
2018-02-21T13:55:36.752Z,26.73
2018-02-21T13:58:05.622Z,24.73
2018-02-21T14:00:34.474Z,27.40
2018-02-21T14:03:03.340Z,26.67
2018-02-21T14:05:32.184Z,24.67
2018-02-21T14:08:01.029Z,25.93
2018-02-21T14:10:29.889Z,25.57
2018-02-21T14:12:58.729Z,29.73
2018-02-21T14:15:27.571Z,26.50
2018-02-21T14:17:56.445Z,28.80
2018-02-21T14:20:25.346Z,28.57
2018-02-21T14:22:55.095Z,30.93
2018-02-21T14:25:23.960Z,23.93
2018-02-21T14:27:52.863Z,28.23
2018-02-21T14:30:21.704Z,25.63
2018-02-21T14:32:50.578Z,30.90
2018-02-21T14:35:19.559Z,27.77
2018-02-21T14:37:48.411Z,29.50
2018-02-21T14:40:17.602Z,23.03
2018-02-21T14:42:46.485Z,22.43
2018-02-21T14:45:15.343Z,24.00
2018-02-21T14:47:44.254Z,26.13
2018-02-21T14:50:13.113Z,29.17
2018-02-21T14:52:41.986Z,20.93
2018-02-21T14:55:10.866Z,27.10
2018-02-21T14:57:39.721Z,23.50
2018-02-21T15:00:09.020Z,24.87
2018-02-21T15:02:37.905Z,20.90
2018-02-21T15:05:06.987Z,24.70
2018-02-21T15:07:35.859Z,22.10
2018-02-21T15:10:03.396Z,29.97
2018-02-21T15:12:30.914Z,27.30
2018-02-21T15:14:58.415Z,24.30
2018-02-21T15:17:25.978Z,24.77
2018-02-21T15:19:53.533Z,33.40
2018-02-21T15:22:21.028Z,24.37
2018-02-21T15:24:49.114Z,23.30
2018-02-21T15:27:16.625Z,26.03
2018-02-21T15:29:44.136Z,29.30
2018-02-21T15:32:13.005Z,27.20
2018-02-21T15:34:40.532Z,34.97
2018-02-21T15:37:08.299Z,29.50
2018-02-21T15:39:36.991Z,25.87
2018-02-21T15:42:04.683Z,28.60
2018-02-21T15:44:32.224Z,28.37
2018-02-21T15:46:59.759Z,27.37
2018-02-21T15:49:28.775Z,27.87
2018-02-21T15:51:56.325Z,32.63
2018-02-21T15:54:23.874Z,30.07
2018-02-21T15:56:51.380Z,31.30
2018-02-21T15:59:18.883Z,30.00
2018-02-21T16:01:46.440Z,32.90
2018-02-21T16:04:14.706Z,35.70
2018-02-21T16:06:42.215Z,25.70
2018-02-21T16:09:10.632Z,28.33
2018-02-21T16:11:38.145Z,32.03
2018-02-21T16:14:05.694Z,31.40
2018-02-21T16:16:33.235Z,37.37
2018-02-21T16:19:01.780Z,32.00
2018-02-21T16:21:29.303Z,35.90
2018-02-21T16:23:56.924Z,28.00
2018-02-21T16:26:25.245Z,31.33
2018-02-21T16:28:52.753Z,36.10
2018-02-21T16:31:20.282Z,28.97
2018-02-21T16:33:47.861Z,25.80
2018-02-21T16:36:15.357Z,26.50
2018-02-21T16:38:42.944Z,36.97
2018-02-21T16:41:10.441Z,28.03
2018-02-21T16:43:38.367Z,41.33
2018-02-21T16:46:05.886Z,36.07
2018-02-21T16:48:34.156Z,34.67
2018-02-21T16:51:01.655Z,31.17
2018-02-21T16:53:29.190Z,33.50
2018-02-21T16:55:56.826Z,33.80
2018-02-21T16:58:24.526Z,39.63
2018-02-21T17:00:52.107Z,33.40
2018-02-21T17:03:19.621Z,31.00
2018-02-21T17:05:47.124Z,33.00
2018-02-21T17:08:14.954Z,35.10
2018-02-21T17:10:42.455Z,38.67
2018-02-21T17:13:11.013Z,33.77
2018-02-21T17:15:39.310Z,39.33
2018-02-21T17:18:06.898Z,34.67
2018-02-21T17:20:34.406Z,35.77
2018-02-21T17:23:02.692Z,32.10
2018-02-21T17:25:30.195Z,31.83
2018-02-21T17:27:57.723Z,37.97
2018-02-21T17:30:25.295Z,34.47
2018-02-21T17:32:53.527Z,34.93
2018-02-21T17:35:21.935Z,34.70
2018-02-21T17:37:49.479Z,36.17
2018-02-21T17:40:17.855Z,35.87
2018-02-21T17:42:45.350Z,32.80
2018-02-21T17:45:13.224Z,34.00
2018-02-21T17:47:40.722Z,35.60
2018-02-21T17:50:08.233Z,35.60
2018-02-21T17:52:35.767Z,30.37
2018-02-21T17:55:03.269Z,31.93
2018-02-21T17:57:30.855Z,35.90
2018-02-21T17:59:58.407Z,32.90
2018-02-21T18:02:25.983Z,34.77
2018-02-21T18:04:53.497Z,31.30
2018-02-21T18:07:21.027Z,36.87
2018-02-21T18:09:49.298Z,32.77
2018-02-21T18:12:17.577Z,36.57
2018-02-21T18:14:45.865Z,27.60
2018-02-21T18:17:13.375Z,36.20
2018-02-21T18:19:40.890Z,38.40
2018-02-21T18:22:08.718Z,42.40
2018-02-21T18:24:36.234Z,34.53
2018-02-21T18:27:03.754Z,32.43
2018-02-21T18:29:32.060Z,28.13
2018-02-21T18:31:59.558Z,39.20
2018-02-21T18:34:27.390Z,37.40
2018-02-21T18:36:54.959Z,31.20
2018-02-21T18:39:22.458Z,32.30
2018-02-21T18:41:49.958Z,32.00
2018-02-21T18:44:17.488Z,30.97
2018-02-21T18:46:46.152Z,36.03
2018-02-21T18:49:13.658Z,33.63
2018-02-21T18:51:41.186Z,28.70
2018-02-21T18:54:08.698Z,34.30
2018-02-21T18:56:36.234Z,26.47
2018-02-21T18:59:03.918Z,34.83
2018-02-21T19:01:31.672Z,26.97
2018-02-21T19:03:59.368Z,29.90
2018-02-21T19:06:27.055Z,35.13
2018-02-21T19:08:55.560Z,35.00
2018-02-21T19:11:24.452Z,32.73
2018-02-21T19:13:52.127Z,32.40
2018-02-21T19:16:19.765Z,35.13
2018-02-21T19:18:47.386Z,33.00
2018-02-21T19:21:15.100Z,29.07
2018-02-21T19:23:43.024Z,26.60
2018-02-21T19:26:10.783Z,31.07
2018-02-21T19:28:38.585Z,29.23
2018-02-21T19:31:06.284Z,30.80
2018-02-21T19:33:34.027Z,29.07
2018-02-21T19:36:01.627Z,31.80
2018-02-21T19:38:29.158Z,27.00
2018-02-21T19:40:56.949Z,19.37
2018-02-21T19:43:24.561Z,27.03
2018-02-21T19:45:52.148Z,27.20
2018-02-21T19:48:19.870Z,25.33
2018-02-21T19:50:47.394Z,28.67
2018-02-21T19:53:14.982Z,28.37
2018-02-21T19:55:42.637Z,34.10
2018-02-21T19:58:10.330Z,23.10
2018-02-21T20:00:37.967Z,26.57
2018-02-21T20:03:05.612Z,31.33
2018-02-21T20:05:33.161Z,26.87
2018-02-21T20:08:00.694Z,28.07
2018-02-21T20:10:29.039Z,26.10
2018-02-21T20:12:56.864Z,24.67
2018-02-21T20:15:24.373Z,25.30
2018-02-21T20:17:52.072Z,20.70
2018-02-21T20:20:19.974Z,29.40
2018-02-21T20:22:47.697Z,29.27
2018-02-21T20:25:15.891Z,27.27
2018-02-21T20:27:43.624Z,27.73
2018-02-21T20:30:11.479Z,26.03
2018-02-21T20:32:39.438Z,25.83
2018-02-21T20:35:07.087Z,22.30
2018-02-21T20:37:34.665Z,23.53
2018-02-21T20:40:03.016Z,23.03
2018-02-21T20:42:30.634Z,27.10
2018-02-21T20:44:58.231Z,20.60
2018-02-21T20:47:26.018Z,22.10
2018-02-21T20:49:54.043Z,22.80
2018-02-21T20:52:21.589Z,23.30
2018-02-21T20:54:49.442Z,19.37
2018-02-21T20:57:17.519Z,27.27
2018-02-21T20:59:45.815Z,24.67
2018-02-21T21:02:13.382Z,27.73
2018-02-21T21:04:41.691Z,24.90
2018-02-21T21:07:09.206Z,24.83
2018-02-21T21:09:38.141Z,28.80
2018-02-21T21:12:05.658Z,24.17
2018-02-21T21:14:34.144Z,18.80
2018-02-21T21:17:01.689Z,24.30
2018-02-21T21:19:29.210Z,20.70
2018-02-21T21:21:56.723Z,26.07
2018-02-21T21:24:25.009Z,25.80
2018-02-21T21:26:52.545Z,21.80
2018-02-21T21:29:20.823Z,25.93
2018-02-21T21:31:49.111Z,25.20
2018-02-21T21:34:17.411Z,23.27
2018-02-21T21:36:44.925Z,23.38
2018-02-21T21:39:12.717Z,23.90
2018-02-21T21:41:41.008Z,19.10
2018-02-21T21:44:08.523Z,24.20
2018-02-21T21:46:36.043Z,22.37
2018-02-21T21:49:03.585Z,21.85
2018-02-21T21:51:31.406Z,18.92
2018-02-21T21:53:58.930Z,20.70
2018-02-21T21:56:26.509Z,21.73
2018-02-21T21:58:53.994Z,21.73
2018-02-21T22:01:22.430Z,19.73
2018-02-21T22:03:50.732Z,21.77
2018-02-21T22:06:18.246Z,21.65
2018-02-21T22:08:45.768Z,19.00
2018-02-21T22:11:13.302Z,25.87
2018-02-21T22:13:40.810Z,20.88
2018-02-21T22:16:09.086Z,17.93
2018-02-21T22:18:36.875Z,14.13
2018-02-21T22:21:04.390Z,23.40
2018-02-21T22:23:31.899Z,22.55
2018-02-21T22:25:59.535Z,21.17
2018-02-21T22:28:27.376Z,20.53
2018-02-21T22:30:54.886Z,17.13
2018-02-21T22:33:22.430Z,22.65
2018-02-21T22:35:49.941Z,24.90
2018-02-21T22:38:17.453Z,22.30
2018-02-21T22:40:44.982Z,15.65
2018-02-21T22:43:13.254Z,16.33
2018-02-21T22:45:40.758Z,18.80
2018-02-21T22:48:08.290Z,25.17
2018-02-21T22:50:35.822Z,21.08
2018-02-21T22:53:03.594Z,19.00
2018-02-21T22:55:31.129Z,13.48
2018-02-21T22:57:58.647Z,19.03
2018-02-21T23:00:26.418Z,18.27
2018-02-21T23:02:53.955Z,20.62
2018-02-21T23:05:22.235Z,24.00
2018-02-21T23:07:50.509Z,14.95
2018-02-21T23:10:18.819Z,17.05
2018-02-21T23:12:46.326Z,21.52
2018-02-21T23:15:13.831Z,17.62
2018-02-21T23:17:41.477Z,16.83
2018-02-21T23:20:08.986Z,18.27
2018-02-21T23:22:37.258Z,25.15
2018-02-21T23:25:04.782Z,17.77
2018-02-21T23:27:32.307Z,17.62
2018-02-21T23:29:59.816Z,20.08
2018-02-21T23:32:27.358Z,18.15
2018-02-21T23:34:54.874Z,20.52
2018-02-21T23:37:22.378Z,21.15
2018-02-21T23:39:49.909Z,16.80
2018-02-21T23:42:17.644Z,21.48
2018-02-21T23:44:45.166Z,21.85
2018-02-21T23:47:12.711Z,22.08
2018-02-21T23:49:41.118Z,15.27
2018-02-21T23:52:08.598Z,17.35
2018-02-21T23:54:36.430Z,20.30
2018-02-21T23:57:03.935Z,23.08
2018-02-21T23:59:31.441Z,22.25
